createdAt,value
2023-02-09T00:02:41.524Z,103253.84
2023-02-09T00:05:43.970Z,103246.38
2023-02-09T00:08:45.699Z,103231.94
2023-02-09T00:12:11.690Z,103240.75
2023-02-09T00:15:14.782Z,103250.06
2023-02-09T00:18:16.173Z,103249.06
2023-02-09T00:21:18.617Z,103241.16
2023-02-09T00:24:19.913Z,103243.06
2023-02-09T00:27:22.412Z,103236.06
2023-02-09T00:30:25.521Z,103239.25
2023-02-09T00:33:27.154Z,103217.22
2023-02-09T00:36:29.875Z,103226.72
2023-02-09T00:39:31.258Z,103218.94
2023-02-09T00:42:33.700Z,103215.16
2023-02-09T00:45:36.911Z,103225.78
2023-02-09T00:48:38.234Z,103218.44
2023-02-09T00:51:40.616Z,103218.44
2023-02-09T00:54:41.929Z,103205.34
2023-02-09T00:57:44.383Z,103211.78
2023-02-09T01:00:47.662Z,103215.91
2023-02-09T01:03:49.122Z,103206.41
2023-02-09T01:06:51.543Z,103200.97
2023-02-09T01:09:52.817Z,103199.50
2023-02-09T01:12:55.250Z,103201.81
2023-02-09T01:15:58.325Z,103201.47
2023-02-09T01:19:01.001Z,103203.19
2023-02-09T01:22:04.106Z,103196.88
2023-02-09T01:25:07.090Z,103197.88
2023-02-09T01:28:09.525Z,103200.84
2023-02-09T01:31:21.342Z,103190.53
2023-02-09T01:34:24.018Z,103184.88
2023-02-09T01:37:25.336Z,103176.69
2023-02-09T01:40:27.771Z,103180.44
2023-02-09T01:43:30.192Z,103171.69
2023-02-09T01:46:33.763Z,103169.84
2023-02-09T01:49:36.261Z,103156.34
2023-02-09T01:52:39.302Z,103159.16
2023-02-09T01:55:46.533Z,103148.94
2023-02-09T01:58:49.209Z,103149.59
2023-02-09T02:01:52.524Z,103134.75
2023-02-09T02:04:55.041Z,103130.59
2023-02-09T02:08:04.089Z,103116.06
2023-02-09T02:11:05.804Z,103130.38
2023-02-09T02:14:08.222Z,103117.84
2023-02-09T02:17:20.173Z,103116.97
2023-02-09T02:21:03.328Z,103104.69
2023-02-09T02:24:24.437Z,103094.66
2023-02-09T02:27:32.288Z,103097.97
2023-02-09T02:30:52.721Z,103103.97
2023-02-09T02:34:02.906Z,103095.22
2023-02-09T02:37:16.775Z,103087.28
2023-02-09T02:40:29.627Z,103084.59
2023-02-09T02:43:42.437Z,103088.16
2023-02-09T02:46:47.515Z,103071.16
2023-02-09T02:49:54.390Z,103075.31
2023-02-09T02:53:00.363Z,103072.97
2023-02-09T02:56:07.088Z,103073.22
2023-02-09T02:59:15.001Z,103064.19
2023-02-09T03:02:19.781Z,103065.53
2023-02-09T03:05:24.663Z,103066.25
2023-02-09T03:11:51.473Z,103069.16
2023-02-09T03:15:13.694Z,103068.97
2023-02-09T03:18:27.327Z,103068.28
2023-02-09T03:21:39.721Z,103061.00
2023-02-09T03:24:47.219Z,103052.69
2023-02-09T03:27:54.947Z,103058.63
2023-02-09T03:30:59.574Z,103050.56
2023-02-09T03:34:02.920Z,103045.31
2023-02-09T03:37:04.865Z,103045.59
2023-02-09T03:43:43.499Z,103031.69
2023-02-09T03:46:44.787Z,103050.00
2023-02-09T03:49:46.149Z,103029.59
2023-02-09T03:52:48.071Z,103037.38
2023-02-09T03:55:50.630Z,103032.97
2023-02-09T03:58:52.209Z,103029.06
2023-02-09T04:01:56.156Z,103026.25
2023-02-09T04:04:58.648Z,103022.03
2023-02-09T04:08:00.705Z,103031.63
2023-02-09T04:11:03.285Z,103023.88
2023-02-09T04:14:05.494Z,103016.47
2023-02-09T04:17:08.084Z,103015.50
2023-02-09T04:20:10.088Z,103027.84
2023-02-09T04:23:13.318Z,103024.84
2023-02-09T04:26:16.377Z,103019.16
2023-02-09T04:29:17.664Z,103022.34
2023-02-09T04:35:39.922Z,103022.16
2023-02-09T04:38:43.213Z,103014.75
2023-02-09T04:41:45.800Z,103014.84
2023-02-09T04:44:47.090Z,103009.44
2023-02-09T04:47:49.611Z,103004.59
2023-02-09T04:50:53.028Z,103002.00
2023-02-09T04:53:54.916Z,102993.56
2023-02-09T04:57:12.018Z,103001.56
2023-02-09T05:00:14.103Z,103001.75
2023-02-09T05:03:16.971Z,102999.50
2023-02-09T05:06:18.684Z,102995.41
2023-02-09T05:09:21.934Z,102994.19
2023-02-09T05:12:24.463Z,103006.28
2023-02-09T05:15:25.800Z,103001.88
2023-02-09T05:18:28.360Z,102998.34
2023-02-09T05:21:29.628Z,102995.00
2023-02-09T05:24:32.873Z,103000.13
2023-02-09T05:27:35.391Z,102998.84
2023-02-09T05:30:37.002Z,102988.56
2023-02-09T05:33:39.556Z,102993.81
2023-02-09T05:36:40.836Z,102989.00
2023-02-09T05:39:43.986Z,102980.34
2023-02-09T05:42:46.578Z,102982.59
2023-02-09T05:45:47.901Z,102980.81
2023-02-09T05:48:50.537Z,102978.94
2023-02-09T05:51:51.803Z,102982.78
2023-02-09T05:58:15.002Z,102979.41
2023-02-09T06:01:17.549Z,102977.28
2023-02-09T06:07:39.736Z,102989.81
2023-02-09T06:10:42.895Z,103001.16
2023-02-09T06:13:45.469Z,102992.63
2023-02-09T06:16:46.905Z,102996.09
2023-02-09T06:19:49.402Z,102996.16
2023-02-09T06:22:50.753Z,102992.84
2023-02-09T06:25:53.932Z,102993.28
2023-02-09T06:28:56.433Z,102998.47
2023-02-09T06:31:57.849Z,103000.31
2023-02-09T06:35:00.523Z,102996.34
2023-02-09T06:38:02.314Z,102997.56
2023-02-09T06:41:06.164Z,102995.25
2023-02-09T06:44:07.458Z,102991.03
2023-02-09T06:47:10.030Z,102996.09
2023-02-09T06:50:14.377Z,102987.66
2023-02-09T06:53:16.419Z,102989.44
2023-02-09T06:56:20.619Z,102991.75
2023-02-09T06:59:23.389Z,102995.41
2023-02-09T07:02:24.647Z,102997.97
2023-02-09T07:05:27.927Z,103000.66
2023-02-09T07:08:29.232Z,103006.84
2023-02-09T07:11:32.490Z,103008.47
2023-02-09T07:14:35.169Z,103002.72
2023-02-09T07:17:36.437Z,103000.09
2023-02-09T07:20:38.978Z,102996.31
2023-02-09T07:23:40.259Z,102999.41
2023-02-09T07:26:43.587Z,102996.44
2023-02-09T07:29:44.972Z,102981.72
2023-02-09T07:32:46.241Z,102983.03
2023-02-09T07:35:49.566Z,102984.16
2023-02-09T07:38:51.082Z,102991.91
2023-02-09T07:41:54.542Z,103000.22
2023-02-09T07:44:55.827Z,103002.22
2023-02-09T07:47:58.398Z,102998.25
2023-02-09T07:51:01.667Z,102998.88
2023-02-09T07:54:07.083Z,102999.41
2023-02-09T07:57:13.249Z,102995.97
2023-02-09T08:00:17.755Z,102986.19
2023-02-09T08:03:21.902Z,102988.56
2023-02-09T08:06:41.018Z,102977.34
2023-02-09T08:09:45.780Z,102970.47
2023-02-09T08:13:00.915Z,102975.28
2023-02-09T08:16:06.723Z,102970.47
2023-02-09T08:19:13.418Z,102978.13
2023-02-09T08:22:16.146Z,102972.22
2023-02-09T08:25:20.552Z,102976.59
2023-02-09T08:28:34.840Z,102973.53
2023-02-09T08:31:44.615Z,102972.06
2023-02-09T08:34:46.024Z,102976.31
2023-02-09T08:37:48.584Z,102980.72
2023-02-09T08:40:49.908Z,102981.22
2023-02-09T08:43:53.085Z,102987.41
2023-02-09T08:46:55.727Z,102970.56
2023-02-09T08:49:59.381Z,102970.75
2023-02-09T08:53:03.353Z,102965.91
2023-02-09T08:56:05.344Z,102971.41
2023-02-09T08:59:08.574Z,102960.16
2023-02-09T09:02:11.139Z,102955.22
2023-02-09T09:05:12.565Z,102963.69
2023-02-09T09:08:15.050Z,102960.47
2023-02-09T09:11:16.598Z,102971.22
2023-02-09T09:14:19.787Z,102966.03
2023-02-09T09:17:21.320Z,102963.50
2023-02-09T09:20:23.916Z,102959.47
2023-02-09T09:23:25.202Z,102957.47
2023-02-09T09:26:27.730Z,102955.84
2023-02-09T09:29:29.632Z,102946.47
2023-02-09T09:32:32.277Z,102953.16
2023-02-09T09:35:33.622Z,102944.09
2023-02-09T09:38:37.758Z,102940.13
2023-02-09T09:41:39.011Z,102921.06
2023-02-09T09:44:47.322Z,102921.03
2023-02-09T09:47:49.165Z,102912.66
2023-02-09T09:50:55.975Z,102903.38
2023-02-09T09:53:59.061Z,102904.63
2023-02-09T09:57:02.081Z,102907.72
2023-02-09T10:00:15.268Z,102908.44
2023-02-09T10:03:18.948Z,102903.69
2023-02-09T10:06:23.536Z,102905.63
2023-02-09T10:09:34.503Z,102911.47
2023-02-09T10:12:38.140Z,102913.22
2023-02-09T10:15:41.924Z,102903.28
2023-02-09T10:18:43.721Z,102901.09
2023-02-09T10:21:46.213Z,102902.28
2023-02-09T10:24:48.751Z,102887.97
2023-02-09T10:27:50.010Z,102888.19
2023-02-09T10:30:55.854Z,102875.25
2023-02-09T10:34:02.174Z,102881.00
2023-02-09T10:37:20.354Z,102868.44
2023-02-09T10:40:28.416Z,102853.75
2023-02-09T10:43:31.845Z,102842.03
2023-02-09T10:46:35.361Z,102851.59
2023-02-09T10:49:39.128Z,102840.38
2023-02-09T10:52:54.260Z,102851.88
2023-02-09T10:56:03.318Z,102849.25
2023-02-09T10:59:15.910Z,102839.34
2023-02-09T11:02:33.841Z,102837.97
2023-02-09T11:05:35.229Z,102850.63
2023-02-09T11:08:44.659Z,102833.06
2023-02-09T11:11:46.436Z,102836.25
2023-02-09T11:14:49.449Z,102842.56
2023-02-09T11:17:55.784Z,102837.00
2023-02-09T11:21:06.570Z,102828.69
2023-02-09T11:24:17.311Z,102834.84
2023-02-09T11:27:32.029Z,102832.00
2023-02-09T11:30:55.250Z,102819.25
2023-02-09T11:34:08.433Z,102818.91
2023-02-09T11:40:51.833Z,102803.72
2023-02-09T11:43:55.000Z,102811.78
2023-02-09T11:47:04.992Z,102805.19
2023-02-09T11:50:10.440Z,102804.09
2023-02-09T11:53:20.958Z,102794.91
2023-02-09T11:56:25.300Z,102797.84
2023-02-09T11:59:31.665Z,102792.97
2023-02-09T12:02:46.603Z,102796.22
2023-02-09T12:05:50.391Z,102797.88
2023-02-09T12:09:00.408Z,102807.50
2023-02-09T12:12:11.675Z,102802.91
2023-02-09T12:15:16.000Z,102803.31
2023-02-09T12:18:21.874Z,102790.53
2023-02-09T12:21:29.370Z,102788.34
2023-02-09T12:24:34.567Z,102789.59
2023-02-09T12:27:38.275Z,102776.50
2023-02-09T12:31:02.561Z,102773.72
2023-02-09T12:34:23.813Z,102769.22
2023-02-09T12:37:29.378Z,102770.63
2023-02-09T12:40:37.729Z,102768.84
2023-02-09T12:43:41.456Z,102775.56
2023-02-09T12:46:52.103Z,102779.78
2023-02-09T12:50:04.541Z,102774.47
2023-02-09T12:53:33.799Z,102779.25
2023-02-09T12:56:37.111Z,102776.38
2023-02-09T12:59:38.377Z,102788.66
2023-02-09T13:02:42.746Z,102777.78
2023-02-09T13:05:46.922Z,102778.13
2023-02-09T13:08:53.733Z,102788.50
2023-02-09T13:12:05.037Z,102776.44
2023-02-09T13:15:14.230Z,102786.97
2023-02-09T13:18:20.009Z,102786.97
2023-02-09T13:21:34.841Z,102797.16
2023-02-09T13:24:43.746Z,102784.59
2023-02-09T13:27:49.031Z,102786.63
2023-02-09T13:30:50.484Z,102784.75
2023-02-09T13:33:59.566Z,102771.16
2023-02-09T13:37:13.475Z,102735.94
2023-02-09T13:40:22.739Z,102724.25
2023-02-09T13:43:28.679Z,102737.84
2023-02-09T13:46:35.584Z,102729.03
2023-02-09T13:49:37.064Z,102738.03
2023-02-09T13:52:40.552Z,102741.25
2023-02-09T13:59:06.555Z,102754.34
2023-02-09T14:02:25.046Z,102739.72
2023-02-09T14:05:36.825Z,102754.16
2023-02-09T14:08:41.475Z,102743.97
2023-02-09T14:11:50.716Z,102737.34
2023-02-09T14:15:14.887Z,102743.44
2023-02-09T14:18:33.358Z,102742.78
2023-02-09T14:21:44.553Z,102753.78
2023-02-09T14:24:47.098Z,102767.88
2023-02-09T14:27:50.393Z,102767.84
2023-02-09T14:30:51.798Z,102770.59
2023-02-09T14:33:56.493Z,102767.56
2023-02-09T14:37:00.030Z,102768.38
2023-02-09T14:40:20.133Z,102775.03
2023-02-09T14:43:25.848Z,102775.50
2023-02-09T14:46:27.204Z,102782.00
2023-02-09T14:49:30.124Z,102768.94
2023-02-09T14:52:32.457Z,102767.72
2023-02-09T14:55:40.700Z,102759.53
2023-02-09T14:58:42.764Z,102761.06
2023-02-09T15:01:45.839Z,102749.84
2023-02-09T15:04:47.207Z,102747.41
2023-02-09T15:07:53.984Z,102737.63
2023-02-09T15:14:24.842Z,102731.75
2023-02-09T15:17:29.057Z,102749.69
2023-02-09T15:20:32.035Z,102731.56
2023-02-09T15:23:33.334Z,102736.56
2023-02-09T15:26:37.586Z,102730.44
2023-02-09T15:29:39.576Z,102727.91
2023-02-09T15:36:03.157Z,102712.66
2023-02-09T15:39:11.968Z,102713.94
2023-02-09T15:42:35.017Z,102696.63
2023-02-09T15:45:55.269Z,102689.47
2023-02-09T15:48:57.843Z,102706.41
2023-02-09T15:52:00.702Z,102721.50
2023-02-09T15:55:02.049Z,102725.00
2023-02-09T15:58:05.355Z,102712.88
2023-02-09T16:01:10.563Z,102714.47
2023-02-09T16:04:14.648Z,102705.72
2023-02-09T16:07:24.563Z,102702.19
2023-02-09T16:10:28.372Z,102677.19
2023-02-09T16:13:30.994Z,102699.75
2023-02-09T16:16:33.043Z,102710.53
2023-02-09T16:19:35.672Z,102716.63
2023-02-09T16:22:39.650Z,102724.75
2023-02-09T16:25:42.758Z,102717.19
2023-02-09T16:28:45.390Z,102717.66
2023-02-09T16:31:47.964Z,102722.44
2023-02-09T16:34:51.488Z,102718.03
2023-02-09T16:37:54.464Z,102721.75
2023-02-09T16:40:57.356Z,102723.72
2023-02-09T16:43:59.245Z,102739.31
2023-02-09T16:47:02.718Z,102737.84
2023-02-09T16:50:16.572Z,102731.19
2023-02-09T16:53:24.602Z,102740.59
2023-02-09T16:56:26.741Z,102740.94
2023-02-09T16:59:29.464Z,102744.31
2023-02-09T17:02:36.417Z,102745.78
2023-02-09T17:09:00.228Z,102755.16
2023-02-09T17:12:01.549Z,102748.56
2023-02-09T17:15:04.225Z,102749.19
2023-02-09T17:18:08.955Z,102737.47
2023-02-09T17:21:17.425Z,102749.81
2023-02-09T17:24:18.758Z,102755.78
2023-02-09T17:27:21.285Z,102760.94
2023-02-09T17:30:23.883Z,102757.38
2023-02-09T17:33:28.163Z,102757.69
2023-02-09T17:36:31.584Z,102756.81
2023-02-09T17:39:33.172Z,102754.28
2023-02-09T17:42:37.781Z,102763.78
2023-02-09T17:45:40.440Z,102752.97
2023-02-09T17:48:42.658Z,102763.28
2023-02-09T17:55:17.488Z,102764.09
2023-02-09T17:58:18.907Z,102754.56
2023-02-09T18:01:26.597Z,102751.09
2023-02-09T18:04:30.917Z,102758.38
2023-02-09T18:07:33.631Z,102763.41
2023-02-09T18:10:36.059Z,102756.56
2023-02-09T18:13:38.628Z,102769.69
2023-02-09T18:16:40.521Z,102769.56
2023-02-09T18:19:43.728Z,102777.66
2023-02-09T18:22:45.176Z,102775.50
2023-02-09T18:25:50.093Z,102765.84
2023-02-09T18:28:52.928Z,102763.03
2023-02-09T18:31:55.739Z,102770.47
2023-02-09T18:34:59.180Z,102765.63
2023-02-09T18:38:01.534Z,102756.50
2023-02-09T18:41:04.308Z,102756.22
2023-02-09T18:44:07.005Z,102751.41
2023-02-09T18:47:10.033Z,102752.09
2023-02-09T18:50:17.120Z,102736.91
2023-02-09T18:53:21.340Z,102744.47
2023-02-09T18:56:26.262Z,102754.16
2023-02-09T18:59:30.181Z,102757.56
2023-02-09T19:02:31.576Z,102751.03
2023-02-09T19:05:35.942Z,102757.44
2023-02-09T19:08:38.604Z,102756.13
2023-02-09T19:11:43.126Z,102752.97
2023-02-09T19:14:46.912Z,102755.59
2023-02-09T19:17:48.536Z,102753.19
2023-02-09T19:20:56.004Z,102752.19
2023-02-09T19:23:57.453Z,102743.53
2023-02-09T19:30:24.206Z,102744.09
2023-02-09T19:33:26.820Z,102749.22
2023-02-09T19:36:30.043Z,102750.78
2023-02-09T19:39:32.256Z,102754.78
2023-02-09T19:42:35.084Z,102750.53
2023-02-09T19:45:37.949Z,102756.63
2023-02-09T19:48:39.610Z,102750.09
2023-02-09T19:51:42.808Z,102753.38
2023-02-09T19:54:44.553Z,102751.22
2023-02-09T19:57:47.171Z,102747.25
2023-02-09T20:00:50.663Z,102750.97
2023-02-09T20:03:52.469Z,102747.97
2023-02-09T20:06:55.810Z,102729.91
2023-02-09T20:09:57.327Z,102734.03
2023-02-09T20:12:59.932Z,102735.16
2023-02-09T20:16:07.013Z,102742.41
2023-02-09T20:19:08.380Z,102740.97
2023-02-09T20:22:13.319Z,102753.34
2023-02-09T20:25:14.737Z,102744.97
2023-02-09T20:28:17.608Z,102744.25
2023-02-09T20:31:20.880Z,102747.09
2023-02-09T20:34:22.206Z,102744.69
2023-02-09T20:37:25.513Z,102743.41
2023-02-09T20:40:26.860Z,102756.03
2023-02-09T20:43:48.079Z,102754.59
2023-02-09T20:46:58.255Z,102746.53
2023-02-09T20:50:01.273Z,102742.69
2023-02-09T20:53:03.295Z,102747.22
2023-02-09T20:56:06.556Z,102742.41
2023-02-09T20:59:08.290Z,102751.63
2023-02-09T21:02:12.438Z,102742.13
2023-02-09T21:05:15.122Z,102754.91
2023-02-09T21:08:17.105Z,102745.38
2023-02-09T21:11:19.792Z,102764.16
2023-02-09T21:14:27.645Z,102763.16
2023-02-09T21:21:10.145Z,102777.63
2023-02-09T21:24:13.570Z,102773.22
2023-02-09T21:27:14.957Z,102778.63
2023-02-09T21:33:38.940Z,102784.72
2023-02-09T21:36:40.278Z,102779.75
2023-02-09T21:39:43.608Z,102777.22
2023-02-09T21:42:44.893Z,102776.66
2023-02-09T21:45:47.553Z,102770.00
2023-02-09T21:48:49.088Z,102764.31
2023-02-09T21:51:51.745Z,102767.84
2023-02-09T21:54:53.741Z,102760.31
2023-02-09T21:57:56.400Z,102752.81
2023-02-09T22:00:59.263Z,102765.72
2023-02-09T22:04:02.787Z,102764.19
2023-02-09T22:07:05.001Z,102760.16
2023-02-09T22:10:09.200Z,102772.13
2023-02-09T22:13:10.956Z,102778.81
2023-02-09T22:16:19.335Z,102787.47
2023-02-09T22:19:20.643Z,102791.19
2023-02-09T22:22:23.207Z,102789.34
2023-02-09T22:25:26.469Z,102794.00
2023-02-09T22:28:28.225Z,102792.59
2023-02-09T22:31:30.823Z,102785.34
2023-02-09T22:34:32.135Z,102779.38
2023-02-09T22:37:34.775Z,102787.75
2023-02-09T22:40:36.745Z,102793.03
2023-02-09T22:43:39.671Z,102800.41
2023-02-09T22:46:44.515Z,102804.38
2023-02-09T22:49:46.276Z,102808.09
2023-02-09T22:56:11.509Z,102800.53
2023-02-09T22:59:14.672Z,102803.38
2023-02-09T23:02:17.258Z,102805.19
2023-02-09T23:05:18.609Z,102794.22
2023-02-09T23:08:23.061Z,102795.69
2023-02-09T23:11:25.500Z,102789.84
2023-02-09T23:14:28.218Z,102793.38
2023-02-09T23:17:32.194Z,102806.47
2023-02-09T23:20:33.524Z,102797.38
2023-02-09T23:23:36.220Z,102791.97
2023-02-09T23:26:38.754Z,102801.78
2023-02-09T23:29:41.297Z,102810.03
2023-02-09T23:32:43.853Z,102806.88
2023-02-09T23:35:45.211Z,102817.84
2023-02-09T23:38:48.262Z,102814.13
2023-02-09T23:41:50.296Z,102806.56
2023-02-09T23:44:52.944Z,102804.31
2023-02-09T23:47:54.318Z,102803.63
2023-02-09T23:50:59.701Z,102801.47
2023-02-09T23:54:03.161Z,102810.34
2023-02-09T23:57:06.386Z,102815.44
